Time;durP1;ratioP1;P1;durP2;ratioP2;P2;SDS_P1;SDS_P2;PMS_P1;PMS_P2;Temp;Humidity;BMP_temperature;BMP_pressure;BME280_temperature;BME280_humidity;BME280_pressure;Samples;Min_cycle;Max_cycle;Signal;HPM_P1;HPM_P2
2022/01/06 00:01:09;;;;;;;14.30;2.05;;;;;;;;;;5073267;28;20503;-68
2022/01/06 00:03:36;;;;;;;12.75;2.22;;;;;;;;;;5073701;28;20127;-68
2022/01/06 00:06:03;;;;;;;9.95;1.50;;;;;;;;;;5073863;28;20077;-68
2022/01/06 00:08:30;;;;;;;14.05;1.52;;;;;;;;;;5073117;28;20056;-68
2022/01/06 00:10:56;;;;;;;11.40;2.15;;;;;;;;;;5072484;28;20400;-68
2022/01/06 00:13:33;;;;;;;15.70;2.00;;;;;;;;;;5072435;28;20055;-68
2022/01/06 00:16:08;;;;;;;10.32;1.40;;;;;;;;;;5072683;28;20049;-68
2022/01/06 00:24:03;;;;;;;12.18;1.85;;;;;;;;;;5073305;28;20063;-68
2022/01/06 00:26:29;;;;;;;12.38;2.33;;;;;;;;;;5073309;28;20051;-68
2022/01/06 00:28:55;;;;;;;17.63;3.58;;;;;;;;;;5073386;28;20475;-68
2022/01/06 00:31:21;;;;;;;14.38;2.42;;;;;;;;;;5073014;28;20177;-68
2022/01/06 00:33:47;;;;;;;12.95;2.13;;;;;;;;;;5073046;28;20055;-68
2022/01/06 00:36:13;;;;;;;15.10;3.08;;;;;;;;;;5073786;28;20055;-68
2022/01/06 00:38:39;;;;;;;18.98;2.60;;;;;;;;;;5072778;28;20429;-68
2022/01/06 00:41:05;;;;;;;22.15;2.67;;;;;;;;;;5073514;28;20348;-68
2022/01/06 00:43:31;;;;;;;24.27;3.03;;;;;;;;;;5073341;28;20444;-68
2022/01/06 00:45:57;;;;;;;13.52;2.30;;;;;;;;;;5072551;28;20071;-68
2022/01/06 00:48:23;;;;;;;23.42;2.83;;;;;;;;;;5073360;28;20040;-68
2022/01/06 00:50:49;;;;;;;16.63;2.03;;;;;;;;;;5073143;28;20041;-68
2022/01/06 00:53:15;;;;;;;18.83;2.70;;;;;;;;;;5072185;28;20131;-68
2022/01/06 00:55:41;;;;;;;18.35;3.05;;;;;;;;;;5073066;28;20037;-68
2022/01/06 00:58:08;;;;;;;15.02;2.80;;;;;;;;;;5072785;28;20064;-68
2022/01/06 01:00:39;;;;;;;17.08;3.13;;;;;;;;;;5104964;28;20492;-68
2022/01/06 01:03:06;;;;;;;17.65;2.80;;;;;;;;;;5105396;28;20052;-68
2022/01/06 01:05:32;;;;;;;18.58;2.22;;;;;;;;;;5073041;28;20036;-68
2022/01/06 01:07:58;;;;;;;16.15;2.28;;;;;;;;;;5072059;28;20029;-68
2022/01/06 01:10:24;;;;;;;19.42;1.90;;;;;;;;;;5072803;28;20501;-68
2022/01/06 01:12:50;;;;;;;12.35;2.25;;;;;;;;;;5105299;28;20499;-68
2022/01/06 01:15:20;;;;;;;16.73;2.63;;;;;;;;;;5072009;28;20051;-68
2022/01/06 01:17:50;;;;;;;15.20;2.35;;;;;;;;;;5072696;28;20094;-68
2022/01/06 01:20:17;;;;;;;17.60;2.20;;;;;;;;;;5072610;28;20040;-68
2022/01/06 01:22:44;;;;;;;16.77;3.30;;;;;;;;;;5072078;28;20079;-68
2022/01/06 01:25:10;;;;;;;21.33;3.45;;;;;;;;;;5072373;28;20553;-68
2022/01/06 01:27:40;;;;;;;19.42;2.50;;;;;;;;;;5051757;28;20128;-68
2022/01/06 01:30:12;;;;;;;19.67;2.92;;;;;;;;;;5051917;28;20040;-68
2022/01/06 01:32:39;;;;;;;18.60;3.63;;;;;;;;;;5052427;28;20458;-68
2022/01/06 01:35:07;;;;;;;16.08;2.30;;;;;;;;;;5051033;28;20758;-68
2022/01/06 01:37:34;;;;;;;12.63;2.17;;;;;;;;;;5051834;28;20061;-68
2022/01/06 01:40:00;;;;;;;20.02;2.60;;;;;;;;;;5051111;28;20037;-68
2022/01/06 01:42:26;;;;;;;15.52;2.78;;;;;;;;;;5052242;28;20179;-68
2022/01/06 01:44:52;;;;;;;19.85;2.15;;;;;;;;;;5051578;28;20068;-68
2022/01/06 01:47:29;;;;;;;23.55;3.13;;;;;;;;;;5052175;28;20043;-68
2022/01/06 01:50:09;;;;;;;16.80;2.67;;;;;;;;;;5050571;28;20055;-68
2022/01/06 01:52:36;;;;;;;20.25;3.03;;;;;;;;;;5051531;28;20045;-68
2022/01/06 01:55:02;;;;;;;19.80;2.65;;;;;;;;;;5050504;28;20056;-68
2022/01/06 01:57:28;;;;;;;16.77;2.40;;;;;;;;;;5052048;28;20037;-68
2022/01/06 01:59:54;;;;;;;15.07;3.08;;;;;;;;;;5051359;28;20051;-68
2022/01/06 02:02:20;;;;;;;20.23;2.95;;;;;;;;;;5052024;28;20470;-68
2022/01/06 02:04:49;;;;;;;13.43;2.55;;;;;;;;;;5051953;28;20084;-68
2022/01/06 02:07:15;;;;;;;20.67;2.35;;;;;;;;;;5051407;28;20040;-68
2022/01/06 02:09:41;;;;;;;18.33;2.90;;;;;;;;;;5051928;28;20056;-68
2022/01/06 02:12:09;;;;;;;18.23;2.67;;;;;;;;;;5051779;28;20045;-68
2022/01/06 02:14:35;;;;;;;15.50;2.75;;;;;;;;;;5050736;28;20092;-68
2022/01/06 02:17:01;;;;;;;18.25;3.08;;;;;;;;;;5051847;28;20049;-68
2022/01/06 02:19:28;;;;;;;18.20;2.50;;;;;;;;;;5050134;28;20037;-68
2022/01/06 02:21:54;;;;;;;18.88;2.92;;;;;;;;;;5049591;28;20045;-68
2022/01/06 02:24:20;;;;;;;20.50;2.90;;;;;;;;;;5050400;28;20494;-68
2022/01/06 02:26:46;;;;;;;21.58;2.33;;;;;;;;;;5064512;28;20076;-68
2022/01/06 02:29:12;;;;;;;23.08;3.00;;;;;;;;;;5070604;28;20048;-68
2022/01/06 02:31:46;;;;;;;14.73;3.05;;;;;;;;;;5071558;28;20044;-68
2022/01/06 02:34:12;;;;;;;15.13;2.25;;;;;;;;;;5104026;28;20479;-68
2022/01/06 02:36:38;;;;;;;17.88;2.28;;;;;;;;;;5070908;28;20127;-68
2022/01/06 02:39:05;;;;;;;15.60;2.33;;;;;;;;;;5075284;28;20037;-68
2022/01/06 02:41:32;;;;;;;17.30;2.55;;;;;;;;;;5078252;28;20043;-68
2022/01/06 02:43:58;;;;;;;19.05;3.50;;;;;;;;;;5077531;28;20037;-68
2022/01/06 02:46:24;;;;;;;17.40;3.08;;;;;;;;;;5110897;28;20044;-68
2022/01/06 02:48:50;;;;;;;20.65;2.80;;;;;;;;;;5078027;28;20037;-68
2022/01/06 02:51:16;;;;;;;15.57;2.22;;;;;;;;;;5077674;28;20037;-68
2022/01/06 02:53:42;;;;;;;19.88;2.75;;;;;;;;;;5078014;28;20075;-68
2022/01/06 02:56:08;;;;;;;14.13;2.83;;;;;;;;;;5077743;28;20051;-68
2022/01/06 02:58:34;;;;;;;18.38;2.92;;;;;;;;;;5077427;28;20048;-68
2022/01/06 03:01:00;;;;;;;15.73;2.25;;;;;;;;;;5078063;28;20034;-68
2022/01/06 03:03:26;;;;;;;16.85;2.08;;;;;;;;;;5078058;28;20043;-68
2022/01/06 03:05:52;;;;;;;16.73;2.45;;;;;;;;;;5077433;28;20045;-68
2022/01/06 03:08:22;;;;;;;15.23;2.30;;;;;;;;;;5110464;28;20063;-68
2022/01/06 03:10:50;;;;;;;10.57;2.33;;;;;;;;;;5077981;28;20383;-68
2022/01/06 03:13:16;;;;;;;17.90;2.40;;;;;;;;;;5077336;28;20047;-68
2022/01/06 03:15:42;;;;;;;21.17;2.47;;;;;;;;;;5110278;28;20040;-68
2022/01/06 03:18:08;;;;;;;16.65;3.05;;;;;;;;;;5077717;28;20040;-68
2022/01/06 03:20:34;;;;;;;26.60;3.08;;;;;;;;;;5077180;28;20368;-68
2022/01/06 03:23:00;;;;;;;17.75;2.25;;;;;;;;;;5077711;28;20502;-68
2022/01/06 03:25:26;;;;;;;11.52;2.15;;;;;;;;;;5109932;28;20106;-68
2022/01/06 03:27:52;;;;;;;21.42;2.25;;;;;;;;;;5075650;28;20056;-68
2022/01/06 03:30:19;;;;;;;13.65;2.55;;;;;;;;;;5077689;28;20032;-68
2022/01/06 03:32:47;;;;;;;21.90;2.20;;;;;;;;;;5077613;28;20037;-69
2022/01/06 03:35:15;;;;;;;11.25;2.10;;;;;;;;;;5076828;28;20045;-68
2022/01/06 03:37:41;;;;;;;14.75;2.47;;;;;;;;;;5077561;28;20508;-68
2022/01/06 03:40:07;;;;;;;16.23;2.63;;;;;;;;;;5077608;28;20036;-68
2022/01/06 03:42:34;;;;;;;16.08;3.35;;;;;;;;;;5076678;28;20048;-68
2022/01/06 03:45:00;;;;;;;16.38;2.45;;;;;;;;;;5076013;28;20124;-68
2022/01/06 03:47:27;;;;;;;14.07;2.47;;;;;;;;;;5077537;28;20708;-68
2022/01/06 03:49:54;;;;;;;15.13;2.53;;;;;;;;;;5074801;28;20127;-68
2022/01/06 03:52:20;;;;;;;12.55;2.10;;;;;;;;;;5074394;28;20127;-68
2022/01/06 03:54:46;;;;;;;13.32;2.33;;;;;;;;;;5073881;28;20076;-68
2022/01/06 03:57:12;;;;;;;13.70;2.30;;;;;;;;;;5073355;28;20436;-68
2022/01/06 03:59:38;;;;;;;15.82;2.13;;;;;;;;;;5074297;28;20037;-68
2022/01/06 04:02:05;;;;;;;14.07;2.60;;;;;;;;;;5074314;28;20068;-68
2022/01/06 04:04:31;;;;;;;17.70;2.28;;;;;;;;;;5073551;28;20041;-68
2022/01/06 04:06:57;;;;;;;14.30;1.98;;;;;;;;;;5074181;28;20127;-68
2022/01/06 04:09:24;;;;;;;15.65;2.17;;;;;;;;;;5074217;28;20171;-68
2022/01/06 04:11:50;;;;;;;12.43;2.25;;;;;;;;;;5073382;28;20127;-68
2022/01/06 04:14:16;;;;;;;12.40;2.42;;;;;;;;;;5073815;28;20044;-69
2022/01/06 04:16:42;;;;;;;14.55;1.85;;;;;;;;;;5073866;28;20045;-68
2022/01/06 04:19:09;;;;;;;18.95;1.92;;;;;;;;;;5073308;28;20040;-68
2022/01/06 04:21:35;;;;;;;14.77;2.00;;;;;;;;;;5072318;28;20666;-68
2022/01/06 04:24:01;;;;;;;14.65;2.00;;;;;;;;;;5073457;28;20040;-68
2022/01/06 04:26:27;;;;;;;11.00;2.05;;;;;;;;;;5072773;28;20106;-68
2022/01/06 04:28:54;;;;;;;14.85;1.98;;;;;;;;;;5073757;28;20051;-68
2022/01/06 04:31:20;;;;;;;11.88;1.90;;;;;;;;;;5106329;28;20161;-68
2022/01/06 04:33:46;;;;;;;9.52;2.17;;;;;;;;;;5105192;28;20418;-68
2022/01/06 04:36:12;;;;;;;11.48;2.25;;;;;;;;;;5073241;28;20036;-68
2022/01/06 04:38:38;;;;;;;12.20;2.50;;;;;;;;;;5073478;28;20072;-68
2022/01/06 04:41:04;;;;;;;12.75;1.75;;;;;;;;;;5072846;28;20044;-68
2022/01/06 04:43:31;;;;;;;12.02;1.83;;;;;;;;;;5073469;28;20094;-68
2022/01/06 04:45:58;;;;;;;12.38;1.95;;;;;;;;;;5073029;28;20048;-68
2022/01/06 04:48:24;;;;;;;10.25;2.10;;;;;;;;;;5072781;28;20048;-68
2022/01/06 04:50:50;;;;;;;20.88;2.72;;;;;;;;;;5073029;28;20040;-68
2022/01/06 04:53:16;;;;;;;15.02;1.90;;;;;;;;;;5072862;28;20101;-68
2022/01/06 04:55:42;;;;;;;12.45;2.10;;;;;;;;;;5072567;28;20043;-68
2022/01/06 04:58:09;;;;;;;7.43;1.60;;;;;;;;;;5072627;28;20085;-68
2022/01/06 05:00:35;;;;;;;11.48;1.48;;;;;;;;;;5105753;28;20085;-68
2022/01/06 05:03:01;;;;;;;10.20;1.88;;;;;;;;;;5072246;28;20028;-68
2022/01/06 05:05:27;;;;;;;7.90;1.58;;;;;;;;;;5105663;28;20482;-68
2022/01/06 05:07:53;;;;;;;7.55;1.65;;;;;;;;;;5073097;28;20477;-68
2022/01/06 05:10:19;;;;;;;6.45;1.50;;;;;;;;;;5104763;28;20124;-68
2022/01/06 05:12:45;;;;;;;10.32;1.75;;;;;;;;;;5105047;28;20418;-68
2022/01/06 05:15:12;;;;;;;11.57;1.90;;;;;;;;;;5072618;28;20045;-68
2022/01/06 05:17:38;;;;;;;6.25;1.80;;;;;;;;;;5072660;28;20064;-68
2022/01/06 05:20:05;;;;;;;9.20;1.85;;;;;;;;;;5072469;28;20041;-68
2022/01/06 05:22:32;;;;;;;12.48;1.83;;;;;;;;;;5072591;28;20040;-68
2022/01/06 05:24:58;;;;;;;9.13;1.42;;;;;;;;;;5072461;28;20056;-68
2022/01/06 05:27:24;;;;;;;8.68;1.52;;;;;;;;;;5071884;28;20093;-68
2022/01/06 05:29:51;;;;;;;9.68;1.40;;;;;;;;;;5072455;28;20093;-68
2022/01/06 05:32:17;;;;;;;8.68;1.75;;;;;;;;;;5070833;28;20180;-68
2022/01/06 05:34:43;;;;;;;14.60;1.70;;;;;;;;;;5071690;28;20261;-68
2022/01/06 05:37:09;;;;;;;9.57;1.40;;;;;;;;;;5072253;28;20498;-68
2022/01/06 05:39:35;;;;;;;14.10;2.05;;;;;;;;;;5072447;28;20429;-68
2022/01/06 05:42:01;;;;;;;16.70;2.17;;;;;;;;;;5071694;28;20040;-68
2022/01/06 05:44:28;;;;;;;8.75;2.05;;;;;;;;;;5071727;28;20048;-68
2022/01/06 05:46:54;;;;;;;15.88;1.63;;;;;;;;;;5072382;28;20064;-68
2022/01/06 05:49:20;;;;;;;10.38;1.58;;;;;;;;;;5071548;28;20483;-68
2022/01/06 05:51:46;;;;;;;13.88;2.35;;;;;;;;;;5072321;28;20086;-68
2022/01/06 05:54:12;;;;;;;13.35;2.85;;;;;;;;;;5070545;28;20098;-68
2022/01/06 05:56:38;;;;;;;13.75;2.55;;;;;;;;;;5071567;28;20486;-68
2022/01/06 05:59:04;;;;;;;9.98;1.77;;;;;;;;;;5072059;28;20086;-68
2022/01/06 06:01:30;;;;;;;10.00;1.70;;;;;;;;;;5072101;28;20538;-68
2022/01/06 06:03:56;;;;;;;17.23;2.40;;;;;;;;;;5071129;28;20036;-68
2022/01/06 06:06:22;;;;;;;11.82;1.95;;;;;;;;;;5071941;28;20386;-68
2022/01/06 06:08:48;;;;;;;16.48;1.98;;;;;;;;;;5071652;28;20032;-68
2022/01/06 06:11:14;;;;;;;8.77;1.88;;;;;;;;;;5069667;28;20076;-68
2022/01/06 06:13:40;;;;;;;9.75;2.15;;;;;;;;;;5071171;28;20045;-68
2022/01/06 06:16:06;;;;;;;13.73;2.28;;;;;;;;;;5071694;28;20102;-68
2022/01/06 06:18:33;;;;;;;13.00;1.80;;;;;;;;;;5071100;28;20503;-68
2022/01/06 06:20:59;;;;;;;17.52;2.03;;;;;;;;;;5071791;28;20041;-68
2022/01/06 06:23:25;;;;;;;13.43;2.10;;;;;;;;;;5071664;28;20036;-68
2022/01/06 06:25:51;;;;;;;13.15;2.20;;;;;;;;;;5069343;28;20060;-68
2022/01/06 06:28:17;;;;;;;15.93;2.30;;;;;;;;;;5103882;28;20052;-68
2022/01/06 06:30:43;;;;;;;19.45;3.05;;;;;;;;;;5071446;28;20174;-68
2022/01/06 06:33:09;;;;;;;11.85;3.03;;;;;;;;;;5070936;28;20037;-68
2022/01/06 06:35:36;;;;;;;13.60;2.38;;;;;;;;;;5071395;28;20056;-68
2022/01/06 06:38:02;;;;;;;13.23;2.83;;;;;;;;;;5071510;28;20043;-68
2022/01/06 06:40:28;;;;;;;8.70;2.10;;;;;;;;;;5070588;28;20033;-68
2022/01/06 06:42:54;;;;;;;8.93;1.60;;;;;;;;;;5071459;28;20528;-68
2022/01/06 06:45:21;;;;;;;11.57;2.17;;;;;;;;;;5071352;28;20123;-68
2022/01/06 06:47:47;;;;;;;9.43;2.17;;;;;;;;;;5069540;28;20044;-68
2022/01/06 06:50:16;;;;;;;16.02;2.60;;;;;;;;;;5070150;28;20079;-68
2022/01/06 06:52:43;;;;;;;10.63;2.80;;;;;;;;;;5070882;28;20051;-68
2022/01/06 06:55:09;;;;;;;15.52;2.80;;;;;;;;;;5070360;28;20135;-68
2022/01/06 06:57:35;;;;;;;7.30;1.48;;;;;;;;;;5071179;28;20050;-68
2022/01/06 07:00:04;;;;;;;8.85;1.80;;;;;;;;;;5071153;28;20064;-68
2022/01/06 07:02:30;;;;;;;11.88;2.17;;;;;;;;;;5068910;28;20044;-69
2022/01/06 07:04:57;;;;;;;9.82;1.70;;;;;;;;;;5071132;28;20044;-69
2022/01/06 07:07:23;;;;;;;7.88;1.90;;;;;;;;;;5071053;28;20040;-68
2022/01/06 07:09:50;;;;;;;13.40;3.03;;;;;;;;;;5070461;28;20124;-68
2022/01/06 07:12:16;;;;;;;11.93;2.25;;;;;;;;;;5069184;28;20853;-68
2022/01/06 07:14:42;;;;;;;13.05;2.30;;;;;;;;;;5070286;28;20422;-68
2022/01/06 07:17:08;;;;;;;14.95;2.22;;;;;;;;;;5067674;28;20040;-69
2022/01/06 07:19:34;;;;;;;10.02;3.35;;;;;;;;;;5071105;28;20043;-69
2022/01/06 07:22:00;;;;;;;15.45;2.28;;;;;;;;;;5069508;28;20072;-69
2022/01/06 07:24:26;;;;;;;12.32;2.20;;;;;;;;;;5067044;28;20052;-69
2022/01/06 07:26:52;;;;;;;13.50;2.33;;;;;;;;;;5073122;28;20064;-70
2022/01/06 07:29:18;;;;;;;12.13;2.42;;;;;;;;;;5073568;28;20047;-69
2022/01/06 07:31:44;;;;;;;7.60;2.00;;;;;;;;;;5072530;28;20475;-68
2022/01/06 07:34:10;;;;;;;10.30;2.20;;;;;;;;;;5072775;28;20048;-70
2022/01/06 07:36:36;;;;;;;8.90;2.25;;;;;;;;;;5072620;28;20713;-70
2022/01/06 07:39:03;;;;;;;13.35;2.47;;;;;;;;;;5073170;28;20037;-68
2022/01/06 07:41:29;;;;;;;12.98;2.63;;;;;;;;;;5072272;28;20044;-67
2022/01/06 07:43:55;;;;;;;15.13;2.70;;;;;;;;;;5074065;28;20132;-68
2022/01/06 07:46:21;;;;;;;13.40;2.53;;;;;;;;;;5072183;28;20040;-70
2022/01/06 07:48:54;;;;;;;10.68;2.70;;;;;;;;;;5062763;28;20056;-70
2022/01/06 07:51:21;;;;;;;11.10;2.65;;;;;;;;;;5072938;28;20102;-71
2022/01/06 07:53:47;;;;;;;14.35;2.83;;;;;;;;;;5070855;28;20056;-70
2022/01/06 07:56:13;;;;;;;8.70;2.75;;;;;;;;;;5071394;28;20055;-71
2022/01/06 07:58:39;;;;;;;14.73;2.58;;;;;;;;;;5071417;28;20053;-71
2022/01/06 08:01:05;;;;;;;13.35;2.55;;;;;;;;;;5054428;28;20046;-70
2022/01/06 08:03:31;;;;;;;11.65;2.60;;;;;;;;;;5071657;28;20041;-70
2022/01/06 08:05:57;;;;;;;17.67;4.15;;;;;;;;;;5072805;28;20532;-71
2022/01/06 08:08:23;;;;;;;18.98;3.70;;;;;;;;;;5071554;28;20048;-71
2022/01/06 08:10:49;;;;;;;21.38;4.13;;;;;;;;;;5071542;28;20040;-71
2022/01/06 08:13:15;;;;;;;15.30;3.47;;;;;;;;;;5070973;28;20616;-72
2022/01/06 08:15:41;;;;;;;17.88;5.63;;;;;;;;;;5071832;28;20052;-72
2022/01/06 08:18:07;;;;;;;20.00;5.07;;;;;;;;;;5071348;28;20059;-70
2022/01/06 08:20:35;;;;;;;20.70;5.22;;;;;;;;;;5072291;28;20040;-70
2022/01/06 08:23:02;;;;;;;21.67;4.18;;;;;;;;;;5070120;28;20048;-72
2022/01/06 08:25:28;;;;;;;19.63;3.45;;;;;;;;;;5070845;28;20110;-70
2022/01/06 08:27:54;;;;;;;11.60;3.22;;;;;;;;;;5071969;28;20072;-71
2022/01/06 08:30:21;;;;;;;21.13;3.45;;;;;;;;;;5070537;28;20382;-71
2022/01/06 08:32:47;;;;;;;10.60;3.42;;;;;;;;;;5070955;28;20048;-71
2022/01/06 08:35:13;;;;;;;21.80;3.95;;;;;;;;;;5054367;28;20399;-70
2022/01/06 08:37:39;;;;;;;12.65;3.40;;;;;;;;;;5070347;28;20072;-73
2022/01/06 08:40:06;;;;;;;22.13;4.07;;;;;;;;;;5071612;28;20502;-70
2022/01/06 08:42:32;;;;;;;16.85;3.67;;;;;;;;;;5070421;28;20043;-70
2022/01/06 08:44:58;;;;;;;19.35;5.53;;;;;;;;;;5070176;28;20130;-70
2022/01/06 08:47:24;;;;;;;19.88;5.43;;;;;;;;;;5071280;28;20115;-70
2022/01/06 08:49:50;;;;;;;25.35;5.00;;;;;;;;;;5070825;28;20509;-70
2022/01/06 08:52:16;;;;;;;20.08;5.47;;;;;;;;;;5071149;28;20122;-70
2022/01/06 08:54:42;;;;;;;21.58;4.93;;;;;;;;;;5069793;28;20048;-70
2022/01/06 08:57:08;;;;;;;20.02;5.18;;;;;;;;;;5071520;28;20042;-70
2022/01/06 08:59:34;;;;;;;22.23;6.55;;;;;;;;;;5070718;28;20040;-69
2022/01/06 09:02:00;;;;;;;26.08;6.35;;;;;;;;;;5069684;28;20356;-70
2022/01/06 09:04:26;;;;;;;24.80;4.78;;;;;;;;;;5070798;28;20032;-70
2022/01/06 09:06:52;;;;;;;17.10;3.90;;;;;;;;;;5070190;28;20102;-69
2022/01/06 09:09:19;;;;;;;24.15;6.13;;;;;;;;;;5071485;28;20059;-70
2022/01/06 09:11:45;;;;;;;15.90;3.65;;;;;;;;;;5069988;28;20049;-70
2022/01/06 09:14:11;;;;;;;28.08;6.82;;;;;;;;;;5063531;28;20047;-72
2022/01/06 09:16:38;;;;;;;30.33;8.45;;;;;;;;;;5070638;28;20118;-69
2022/01/06 09:19:04;;;;;;;25.60;6.00;;;;;;;;;;5069533;28;20037;-68
2022/01/06 09:21:30;;;;;;;28.25;5.38;;;;;;;;;;5071405;28;20044;-70
2022/01/06 09:23:59;;;;;;;26.50;5.22;;;;;;;;;;5068699;28;20071;-71
2022/01/06 09:26:25;;;;;;;23.67;4.35;;;;;;;;;;5070405;28;20064;-69
2022/01/06 09:28:51;;;;;;;20.95;4.38;;;;;;;;;;5074024;28;20460;-68
2022/01/06 09:31:17;;;;;;;19.27;4.03;;;;;;;;;;5068922;28;20525;-70
2022/01/06 09:33:43;;;;;;;25.33;3.72;;;;;;;;;;5069964;28;20041;-71
2022/01/06 09:36:09;;;;;;;21.50;3.75;;;;;;;;;;5069259;28;20388;-69
2022/01/06 09:38:36;;;;;;;17.67;3.22;;;;;;;;;;5068877;28;20044;-69
2022/01/06 09:41:03;;;;;;;15.82;2.78;;;;;;;;;;5069750;28;20407;-70
2022/01/06 09:43:31;;;;;;;22.13;3.72;;;;;;;;;;5069038;28;20043;-71
2022/01/06 09:46:01;;;;;;;18.17;3.33;;;;;;;;;;5068853;28;20060;-70
2022/01/06 09:48:27;;;;;;;20.63;3.10;;;;;;;;;;5068899;28;20135;-69
2022/01/06 09:50:53;;;;;;;22.75;3.80;;;;;;;;;;5070323;28;20079;-67
2022/01/06 09:53:21;;;;;;;18.98;3.45;;;;;;;;;;5070081;28;20044;-69
2022/01/06 09:55:47;;;;;;;17.10;3.90;;;;;;;;;;5070342;28;20743;-69
2022/01/06 09:58:17;;;;;;;21.13;3.60;;;;;;;;;;5070777;28;20090;-70
2022/01/06 10:00:46;;;;;;;22.85;4.07;;;;;;;;;;5068813;28;20047;-68
2022/01/06 10:03:12;;;;;;;16.75;3.13;;;;;;;;;;5069546;28;20090;-68
2022/01/06 10:05:41;;;;;;;19.30;3.53;;;;;;;;;;5071357;28;20429;-69
2022/01/06 10:08:08;;;;;;;24.35;3.60;;;;;;;;;;5067707;28;20044;-67
2022/01/06 10:10:35;;;;;;;22.27;2.90;;;;;;;;;;5070507;28;20036;-69
2022/01/06 10:13:06;;;;;;;15.70;3.45;;;;;;;;;;5070402;28;20048;-69
2022/01/06 10:15:33;;;;;;;21.23;3.47;;;;;;;;;;5069127;28;20040;-69
2022/01/06 10:18:09;;;;;;;22.98;3.05;;;;;;;;;;5070727;28;20037;-69
2022/01/06 10:20:35;;;;;;;20.98;3.80;;;;;;;;;;5070224;28;20040;-70
2022/01/06 10:23:01;;;;;;;18.23;3.28;;;;;;;;;;5070111;28;20536;-70
2022/01/06 10:25:30;;;;;;;22.98;3.40;;;;;;;;;;5068687;28;20055;-71
2022/01/06 10:27:56;;;;;;;15.00;3.40;;;;;;;;;;5067227;28;20056;-70
2022/01/06 10:30:25;;;;;;;24.35;4.35;;;;;;;;;;5067632;28;20044;-70
2022/01/06 10:32:51;;;;;;;18.20;3.80;;;;;;;;;;5068970;28;20068;-71
2022/01/06 10:35:20;;;;;;;17.17;2.85;;;;;;;;;;5068239;28;20048;-71
2022/01/06 10:37:48;;;;;;;13.50;3.28;;;;;;;;;;5069509;28;20052;-69
2022/01/06 10:40:18;;;;;;;16.08;2.67;;;;;;;;;;5068084;28;20148;-70
2022/01/06 10:42:46;;;;;;;19.00;3.35;;;;;;;;;;5069385;28;20051;-71
2022/01/06 10:45:16;;;;;;;17.48;2.78;;;;;;;;;;5068308;28;20036;-70
2022/01/06 10:47:44;;;;;;;16.55;3.60;;;;;;;;;;5070958;28;20048;-69
2022/01/06 10:50:21;;;;;;;12.15;2.72;;;;;;;;;;5071865;28;20043;-69
2022/01/06 10:52:49;;;;;;;19.48;3.50;;;;;;;;;;5064494;28;20045;-70
2022/01/06 10:55:27;;;;;;;20.58;3.78;;;;;;;;;;5068689;28;20053;-69
2022/01/06 10:57:56;;;;;;;15.18;3.35;;;;;;;;;;5070208;28;20502;-69
2022/01/06 11:00:23;;;;;;;17.23;3.30;;;;;;;;;;5070585;28;20040;-69
2022/01/06 11:02:49;;;;;;;18.15;3.05;;;;;;;;;;5071278;28;20044;-69
2022/01/06 11:05:15;;;;;;;19.05;3.70;;;;;;;;;;5075958;28;20044;-69
2022/01/06 11:07:42;;;;;;;21.73;3.13;;;;;;;;;;5074542;28;20532;-70
2022/01/06 11:10:15;;;;;;;19.80;3.10;;;;;;;;;;5072675;28;20189;-70
2022/01/06 11:12:42;;;;;;;16.55;3.50;;;;;;;;;;5073074;28;20491;-69
2022/01/06 11:15:08;;;;;;;13.73;2.50;;;;;;;;;;5071414;28;20044;-69
2022/01/06 11:17:35;;;;;;;21.48;2.78;;;;;;;;;;5067158;28;20040;-68
2022/01/06 11:20:02;;;;;;;18.80;2.75;;;;;;;;;;5074970;28;20040;-68
2022/01/06 11:22:28;;;;;;;17.67;3.50;;;;;;;;;;5072302;28;20044;-71
2022/01/06 11:24:56;;;;;;;18.65;3.10;;;;;;;;;;5073315;28;20402;-70
2022/01/06 11:27:35;;;;;;;11.57;2.47;;;;;;;;;;5073049;28;20441;-69
2022/01/06 11:30:15;;;;;;;15.80;3.13;;;;;;;;;;5074410;28;20406;-68
2022/01/06 11:32:42;;;;;;;16.27;2.97;;;;;;;;;;5073080;28;20470;-68
2022/01/06 11:35:15;;;;;;;11.85;2.35;;;;;;;;;;5075191;28;20103;-68
2022/01/06 11:37:52;;;;;;;19.77;2.67;;;;;;;;;;5073554;28;20040;-69
2022/01/06 11:40:32;;;;;;;12.38;2.42;;;;;;;;;;5071233;28;20052;-68
2022/01/06 11:42:58;;;;;;;19.02;3.45;;;;;;;;;;5074951;28;20037;-68
2022/01/06 11:45:25;;;;;;;12.48;3.22;;;;;;;;;;5073794;28;20037;-69
2022/01/06 11:48:20;;;;;;;17.33;3.47;;;;;;;;;;5071658;28;20045;-68
2022/01/06 11:50:47;;;;;;;9.70;2.25;;;;;;;;;;5060351;28;20109;-70
2022/01/06 11:53:14;;;;;;;16.13;2.50;;;;;;;;;;5077239;28;20053;-68
2022/01/06 11:55:41;;;;;;;15.75;2.47;;;;;;;;;;5078141;28;20055;-68
2022/01/06 11:58:11;;;;;;;14.15;3.53;;;;;;;;;;5073030;28;20041;-69
2022/01/06 12:00:42;;;;;;;19.85;3.47;;;;;;;;;;5075527;28;20036;-68
2022/01/06 12:03:10;;;;;;;25.38;3.97;;;;;;;;;;5074496;28;20040;-70
2022/01/06 12:05:43;;;;;;;15.23;3.30;;;;;;;;;;5073110;28;20057;-69
2022/01/06 12:08:09;;;;;;;28.98;5.80;;;;;;;;;;5072027;28;20043;-69
2022/01/06 12:10:42;;;;;;;18.92;4.70;;;;;;;;;;5073366;28;20483;-69
2022/01/06 12:13:08;;;;;;;14.80;3.85;;;;;;;;;;5071000;28;20048;-70
2022/01/06 12:15:44;;;;;;;16.50;3.75;;;;;;;;;;5072334;28;20047;-68
2022/01/06 12:18:10;;;;;;;17.75;4.38;;;;;;;;;;5072712;28;20040;-68
2022/01/06 12:20:36;;;;;;;16.80;3.83;;;;;;;;;;5069755;28;20097;-70
2022/01/06 12:23:05;;;;;;;16.30;4.30;;;;;;;;;;5072394;28;20132;-69
2022/01/06 12:25:31;;;;;;;18.98;5.15;;;;;;;;;;5071468;28;20048;-70
2022/01/06 12:27:57;;;;;;;18.85;3.58;;;;;;;;;;5102001;28;20083;-68
2022/01/06 12:30:26;;;;;;;18.30;4.13;;;;;;;;;;5072283;28;20040;-69
2022/01/06 12:32:56;;;;;;;21.02;4.35;;;;;;;;;;5071823;28;20078;-68
2022/01/06 12:35:34;;;;;;;22.63;3.53;;;;;;;;;;5071415;28;20052;-70
2022/01/06 12:38:00;;;;;;;14.35;3.42;;;;;;;;;;5070431;28;20032;-70
2022/01/06 12:40:37;;;;;;;20.27;3.97;;;;;;;;;;5072141;28;20380;-69
2022/01/06 12:43:21;;;;;;;22.65;3.58;;;;;;;;;;5072685;28;20068;-70
2022/01/06 12:46:00;;;;;;;11.30;3.13;;;;;;;;;;5072712;28;20048;-71
2022/01/06 12:48:31;;;;;;;18.80;3.38;;;;;;;;;;5070249;28;20049;-70
2022/01/06 12:50:57;;;;;;;12.52;3.00;;;;;;;;;;5071738;28;20045;-72
2022/01/06 12:53:26;;;;;;;14.07;2.97;;;;;;;;;;5073572;28;20036;-70
2022/01/06 12:55:52;;;;;;;14.02;2.55;;;;;;;;;;5074429;28;20048;-69
2022/01/06 12:58:25;;;;;;;11.98;2.88;;;;;;;;;;5074589;28;20048;-69
2022/01/06 13:00:55;;;;;;;16.10;3.13;;;;;;;;;;5071512;28;20468;-69
2022/01/06 13:03:32;;;;;;;17.05;2.78;;;;;;;;;;5072184;28;20349;-69
2022/01/06 13:05:58;;;;;;;12.75;2.47;;;;;;;;;;5068988;28;20110;-70
2022/01/06 13:08:25;;;;;;;12.07;2.80;;;;;;;;;;5071801;28;20048;-70
2022/01/06 13:11:11;;;;;;;15.20;2.75;;;;;;;;;;5072682;28;20045;-69
2022/01/06 13:13:44;;;;;;;12.32;2.58;;;;;;;;;;5070165;28;20080;-69
2022/01/06 13:16:17;;;;;;;15.65;3.17;;;;;;;;;;5070409;28;20475;-69
2022/01/06 13:19:02;;;;;;;13.50;3.58;;;;;;;;;;5071059;28;20036;-70
2022/01/06 13:21:33;;;;;;;16.45;3.30;;;;;;;;;;5071442;28;20429;-70
2022/01/06 13:24:19;;;;;;;12.57;2.70;;;;;;;;;;5071051;28;20036;-69
2022/01/06 13:26:53;;;;;;;24.55;3.58;;;;;;;;;;5068483;28;20060;-70
2022/01/06 13:29:25;;;;;;;16.10;2.47;;;;;;;;;;5071193;28;20389;-71
2022/01/06 13:32:01;;;;;;;17.05;2.78;;;;;;;;;;5071254;28;20124;-70
2022/01/06 13:34:27;;;;;;;13.43;2.53;;;;;;;;;;5067498;28;20044;-70
2022/01/06 13:37:04;;;;;;;14.70;2.67;;;;;;;;;;5069758;28;20072;-70
2022/01/06 13:39:35;;;;;;;14.30;2.65;;;;;;;;;;5070476;28;20076;-71
2022/01/06 13:42:01;;;;;;;11.85;2.50;;;;;;;;;;5068251;28;20037;-70
2022/01/06 13:44:27;;;;;;;15.27;2.72;;;;;;;;;;5069572;28;20117;-70
2022/01/06 13:47:11;;;;;;;16.38;2.80;;;;;;;;;;5072237;28;20040;-67
2022/01/06 13:52:23;;;;;;;12.82;2.80;;;;;;;;;;5071386;28;20067;-68
2022/01/06 13:54:49;;;;;;;13.60;2.75;;;;;;;;;;5070536;28;20040;-68
2022/01/06 13:57:15;;;;;;;15.98;2.70;;;;;;;;;;5070816;28;20044;-68
2022/01/06 13:59:42;;;;;;;13.77;2.63;;;;;;;;;;5072697;28;20037;-68
2022/01/06 14:02:09;;;;;;;17.88;2.85;;;;;;;;;;5070176;28;20471;-69
2022/01/06 14:04:36;;;;;;;12.43;2.83;;;;;;;;;;5070775;28;20068;-68
2022/01/06 14:07:02;;;;;;;16.05;2.80;;;;;;;;;;5070622;28;20043;-69
2022/01/06 14:09:28;;;;;;;13.73;2.60;;;;;;;;;;5070530;28;20115;-69
2022/01/06 14:11:54;;;;;;;20.48;2.90;;;;;;;;;;5069203;28;20127;-67
2022/01/06 14:14:21;;;;;;;14.23;2.50;;;;;;;;;;5070639;28;20491;-68
2022/01/06 14:16:47;;;;;;;14.20;2.60;;;;;;;;;;5072070;28;20044;-67
2022/01/06 14:19:13;;;;;;;13.32;3.20;;;;;;;;;;5073346;28;20032;-69
2022/01/06 14:21:39;;;;;;;13.20;3.60;;;;;;;;;;5069731;28;20037;-69
2022/01/06 14:24:05;;;;;;;13.23;2.97;;;;;;;;;;5070839;28;20086;-69
2022/01/06 14:26:31;;;;;;;15.43;2.92;;;;;;;;;;5067586;28;20147;-68
2022/01/06 14:28:58;;;;;;;13.70;3.17;;;;;;;;;;5102328;28;20078;-69
2022/01/06 14:31:24;;;;;;;14.13;3.40;;;;;;;;;;5069367;28;20617;-68
2022/01/06 14:33:51;;;;;;;12.15;3.25;;;;;;;;;;5068768;28;20433;-69
2022/01/06 14:36:20;;;;;;;17.55;3.28;;;;;;;;;;5070707;28;20052;-70
2022/01/06 14:38:46;;;;;;;17.73;3.03;;;;;;;;;;5051671;28;20628;-71
2022/01/06 14:41:12;;;;;;;9.20;3.05;;;;;;;;;;5068404;28;20048;-69